createdAt,value
2022-11-27T00:00:06.489Z,-28.4
2022-11-27T00:02:08.320Z,-28.4
2022-11-27T00:04:10.260Z,-28.4
2022-11-27T00:08:13.361Z,-28.5
2022-11-27T00:10:14.618Z,-28.5
2022-11-27T00:14:18.582Z,-28.4
2022-11-27T00:16:19.975Z,-28.5
2022-11-27T00:18:21.088Z,-28.5
2022-11-27T00:20:25.058Z,-28.6
2022-11-27T00:24:25.619Z,-28.3
2022-11-27T00:26:26.683Z,-28.4
2022-11-27T00:28:27.866Z,-28.5
2022-11-27T00:30:29.145Z,-28.4
2022-11-27T00:34:32.802Z,-28.5
2022-11-27T00:36:34.052Z,-28.3
2022-11-27T00:38:38.645Z,-28.5
2022-11-27T00:40:37.048Z,-28.4
2022-11-27T00:42:38.276Z,-28.2
2022-11-27T00:44:39.716Z,-28.3
2022-11-27T00:46:40.679Z,-28.4
2022-11-27T00:48:42.585Z,-28.5
2022-11-27T00:52:45.411Z,-28.6
2022-11-27T00:56:48.798Z,-28.3
2022-11-27T00:58:50.505Z,-28.4
2022-11-27T01:00:52.319Z,-28.6
2022-11-27T01:02:53.750Z,-28.3
2022-11-27T01:04:55.694Z,-28.4
2022-11-27T01:06:57.384Z,-28.4
2022-11-27T01:08:59.454Z,-28.5
2022-11-27T01:11:00.831Z,-28.4
2022-11-27T01:13:02.750Z,-28.6
2022-11-27T01:15:04.656Z,-28.5
2022-11-27T01:17:05.890Z,-28.6
2022-11-27T01:19:07.290Z,-28.5
2022-11-27T01:21:08.930Z,-28.5
2022-11-27T01:23:10.346Z,-28.4
2022-11-27T01:25:11.721Z,-28.3
2022-11-27T01:27:12.935Z,-28.6
2022-11-27T01:29:14.610Z,-28
2022-11-27T01:31:15.873Z,-28.4
2022-11-27T01:33:17.227Z,-28.5
2022-11-27T01:35:18.504Z,-28.4
2022-11-27T01:39:21.009Z,-28.4
2022-11-27T01:41:22.993Z,-28.6
2022-11-27T01:43:24.502Z,-28.5
2022-11-27T01:45:26.176Z,-28.4
2022-11-27T01:51:31.380Z,-28.4
2022-11-27T01:53:33.173Z,-28.5
2022-11-27T01:55:34.462Z,-28.3
2022-11-27T01:57:35.829Z,-28.3
2022-11-27T01:59:37.084Z,-28.4
2022-11-27T02:01:38.759Z,-28.3
2022-11-27T02:03:40.555Z,-28.5
2022-11-27T02:05:42.053Z,-28.4
2022-11-27T02:07:43.452Z,-28.4
2022-11-27T02:09:45.208Z,-28.3
2022-11-27T02:11:46.983Z,-28.4
2022-11-27T02:13:48.507Z,-28.3
2022-11-27T02:15:50.333Z,-28.7
2022-11-27T02:17:51.865Z,-28.6
2022-11-27T02:19:53.263Z,-28.3
2022-11-27T02:21:54.465Z,-28.6
2022-11-27T02:23:55.932Z,-28.3
2022-11-27T02:25:57.459Z,-28.3
2022-11-27T02:27:58.568Z,-28.4
2022-11-27T02:30:00.117Z,-28.2
2022-11-27T02:32:01.745Z,-28.3
2022-11-27T02:34:03.739Z,-28.3
2022-11-27T02:36:05.447Z,-28.4
2022-11-27T02:38:07.136Z,-28.5
2022-11-27T02:40:08.645Z,-28.4
2022-11-27T02:42:10.572Z,-28.5
2022-11-27T02:44:12.433Z,-28.4
2022-11-27T02:46:14.464Z,-28.2
2022-11-27T02:48:15.476Z,-28.3
2022-11-27T02:50:17.459Z,-28.2
2022-11-27T02:52:18.554Z,-28.4
2022-11-27T02:54:20.467Z,-28.4
2022-11-27T02:56:21.786Z,-28.5
2022-11-27T02:58:23.105Z,-28.4
2022-11-27T03:00:24.343Z,-28.5
2022-11-27T03:02:26.162Z,-28.5
2022-11-27T03:04:27.761Z,-28.3
2022-11-27T03:06:29.790Z,-28.3
2022-11-27T03:10:32.964Z,-28.4
2022-11-27T03:12:34.125Z,-28.4
2022-11-27T03:14:35.772Z,-28.6
2022-11-27T03:16:37.306Z,-28.3
2022-11-27T03:18:38.989Z,-28.5
2022-11-27T03:20:40.454Z,-28.5
2022-11-27T03:22:42.427Z,-28.6
2022-11-27T03:24:43.914Z,-28.3
2022-11-27T03:26:45.081Z,-28.4
2022-11-27T03:27:28.997Z,-28.3
2022-11-27T03:31:32.598Z,-28.6
2022-11-27T03:33:34.254Z,-28.5
2022-11-27T03:35:35.801Z,-28.4
2022-11-27T03:37:37.686Z,-28.5
2022-11-27T03:39:38.838Z,-28.5
2022-11-27T03:41:40.656Z,-28.3
2022-11-27T03:43:42.338Z,-28.4
2022-11-27T03:47:45.470Z,-28.5
2022-11-27T03:49:47.342Z,-28.4
2022-11-27T03:51:49.211Z,-28.3
2022-11-27T03:53:50.951Z,-28.2
2022-11-27T03:57:54.659Z,-28.2
2022-11-27T04:00:03.726Z,-28.5
2022-11-27T04:03:59.374Z,-28.5
2022-11-27T04:08:10.983Z,-28.4
2022-11-27T04:10:03.704Z,-28.3
2022-11-27T04:12:05.281Z,-28.4
2022-11-27T04:14:06.465Z,-28.5
2022-11-27T04:16:07.669Z,-28.1
2022-11-27T04:18:08.789Z,-28.4
2022-11-27T04:20:09.997Z,-28.5
2022-11-27T04:24:13.058Z,-28.4
2022-11-27T04:26:14.226Z,-28.4
2022-11-27T04:28:15.427Z,-28.3
2022-11-27T04:30:17.463Z,-28.3
2022-11-27T04:36:22.619Z,-28.2
2022-11-27T04:38:23.963Z,-28.3
2022-11-27T04:40:25.419Z,-28.7
2022-11-27T04:42:26.803Z,-28.5
2022-11-27T04:44:28.671Z,-28.3
2022-11-27T04:46:29.879Z,-28.3
2022-11-27T04:48:30.961Z,-28.2
2022-11-27T04:50:32.752Z,-28.4
2022-11-27T04:52:34.514Z,-28.6
2022-11-27T04:54:36.579Z,-28.2
2022-11-27T04:56:37.859Z,-28.3
2022-11-27T04:58:39.432Z,-28.2
2022-11-27T05:00:40.956Z,-28.4
2022-11-27T05:02:42.452Z,-28.4
2022-11-27T05:04:43.589Z,-28.2
2022-11-27T05:06:45.219Z,-28.3
2022-11-27T05:08:47.315Z,-28.4
2022-11-27T05:10:48.623Z,-28.5
2022-11-27T05:12:50.230Z,-28.5
2022-11-27T05:14:51.458Z,-28.7
2022-11-27T05:18:54.544Z,-28.4
2022-11-27T05:22:57.963Z,-28.3
2022-11-27T05:24:59.849Z,-28.6
2022-11-27T05:27:01.742Z,-28.3
2022-11-27T05:29:03.093Z,-28.5
2022-11-27T05:33:05.677Z,-28.5
2022-11-27T05:35:06.989Z,-28.7
2022-11-27T05:37:08.362Z,-28.3
2022-11-27T05:39:09.705Z,-28.6
2022-11-27T05:41:11.502Z,-28.6
2022-11-27T05:43:12.976Z,-28.4
2022-11-27T05:45:14.479Z,-28.5
2022-11-27T05:47:15.670Z,-28.6
2022-11-27T05:49:17.501Z,-28.4
2022-11-27T05:51:19.113Z,-28.4
2022-11-27T05:53:20.465Z,-28.4
2022-11-27T05:55:21.892Z,-28.5
2022-11-27T05:57:23.941Z,-28.5
2022-11-27T05:59:25.441Z,-28.2
2022-11-27T06:01:27.225Z,-28.3
2022-11-27T06:03:28.787Z,-28.3
2022-11-27T06:05:30.576Z,-28.5
2022-11-27T06:07:32.372Z,-28.5
2022-11-27T06:09:33.744Z,-28.3
2022-11-27T06:11:35.103Z,-28.5
2022-11-27T06:13:36.708Z,-28.4
2022-11-27T06:17:39.293Z,-28.3
2022-11-27T06:19:41.277Z,-28.5
2022-11-27T06:21:42.806Z,-28.5
2022-11-27T06:23:44.607Z,-28.4
2022-11-27T06:25:46.652Z,-28.3
2022-11-27T06:27:47.764Z,-28.5
2022-11-27T06:29:49.166Z,-28.5
2022-11-27T06:31:50.757Z,-28.6
2022-11-27T06:33:51.960Z,-28.4
2022-11-27T06:35:53.710Z,-28.4
2022-11-27T06:37:55.297Z,-28.5
2022-11-27T06:39:57.385Z,-28.7
2022-11-27T06:41:58.815Z,-28.5
2022-11-27T06:44:00.864Z,-28.4
2022-11-27T06:46:02.973Z,-28.4
2022-11-27T06:48:04.283Z,-28.3
2022-11-27T06:50:06.288Z,-28.6
2022-11-27T06:52:07.596Z,-28.4
2022-11-27T06:54:08.737Z,-28.4
2022-11-27T06:56:10.243Z,-28.5
2022-11-27T06:58:11.425Z,-28.4
2022-11-27T07:00:12.838Z,-28.4
2022-11-27T07:02:14.606Z,-28.2
2022-11-27T07:04:16.528Z,-28.5
2022-11-27T07:06:17.973Z,-28.6
2022-11-27T07:08:19.127Z,-28.4
2022-11-27T07:10:20.986Z,-28.6
2022-11-27T07:16:26.128Z,-27.9
2022-11-27T07:18:27.730Z,-28.6
2022-11-27T07:20:28.845Z,-28.5
2022-11-27T07:22:30.257Z,-28.2
2022-11-27T07:24:32.342Z,-28.6
2022-11-27T07:26:33.828Z,-28.5
2022-11-27T07:28:35.125Z,-28.5
2022-11-27T07:30:36.248Z,-28.4
2022-11-27T07:32:37.498Z,-28.2
2022-11-27T07:36:40.010Z,-28.4
2022-11-27T07:38:41.359Z,-28.5
2022-11-27T07:40:42.890Z,-28.5
2022-11-27T07:42:44.009Z,-28.5
2022-11-27T07:46:46.791Z,-28.5
2022-11-27T07:48:48.384Z,-28.4
2022-11-27T07:50:49.571Z,-28.4
2022-11-27T07:52:50.842Z,-28.2
2022-11-27T07:56:53.692Z,-28.6
2022-11-27T07:58:55.574Z,-28.5
2022-11-27T08:00:56.737Z,-28.6
2022-11-27T08:02:58.120Z,-16.2
2022-11-27T08:07:00.561Z,12.8
2022-11-27T08:09:02.537Z,52.9
2022-11-27T08:11:03.964Z,80.9
2022-11-27T08:13:05.457Z,81
2022-11-27T08:15:07.316Z,81
2022-11-27T08:17:09.079Z,8.3
2022-11-27T08:19:11.088Z,31.7
2022-11-27T08:25:15.656Z,10.7
2022-11-27T08:27:17.668Z,0.5
2022-11-27T08:29:19.444Z,8.1
2022-11-27T08:31:21.073Z,9.6
2022-11-27T08:33:22.764Z,16.7
2022-11-27T08:35:24.715Z,32.59
2022-11-27T08:39:27.222Z,25.4
2022-11-27T08:41:28.362Z,27.9
2022-11-27T08:43:30.139Z,48.8
2022-11-27T08:45:31.728Z,76.1
2022-11-27T08:47:33.129Z,80.8
2022-11-27T08:49:34.790Z,81.3
2022-11-27T08:51:36.178Z,81.1
2022-11-27T08:53:37.691Z,81.19
2022-11-27T08:55:39.899Z,81.19
2022-11-27T08:57:41.678Z,15.2
2022-11-27T08:59:43.663Z,0.8
2022-11-27T09:01:45.044Z,4.3
2022-11-27T09:07:50.059Z,-12.2
2022-11-27T09:09:51.187Z,9.1
2022-11-27T09:11:53.063Z,15.6
2022-11-27T09:13:54.392Z,34.3
2022-11-27T09:17:57.898Z,62.4
2022-11-27T09:19:59.244Z,51.3
2022-11-27T09:22:01.003Z,81.19
2022-11-27T09:24:02.533Z,81
2022-11-27T09:26:04.160Z,81.19
2022-11-27T09:28:05.679Z,81.19
2022-11-27T09:30:06.979Z,81.6
2022-11-27T09:32:08.170Z,81.4
2022-11-27T09:34:09.326Z,81.6
2022-11-27T09:36:10.327Z,81.9
2022-11-27T09:38:11.705Z,53.6
2022-11-27T09:40:13.105Z,44.9
2022-11-27T09:42:14.695Z,24.9
2022-11-27T09:44:15.871Z,58.9
2022-11-27T09:46:17.267Z,81.6
2022-11-27T09:48:18.473Z,81.8
2022-11-27T09:50:19.861Z,81.5
2022-11-27T09:52:21.573Z,81.5
2022-11-27T09:54:23.176Z,81.4
2022-11-27T09:56:24.818Z,81.3
2022-11-27T09:58:26.159Z,81.6
2022-11-27T10:00:27.527Z,81.5
2022-11-27T10:02:28.998Z,81.6
2022-11-27T10:04:36.147Z,81.3
2022-11-27T10:06:32.659Z,81.6
2022-11-27T10:08:34.096Z,81.5
2022-11-27T10:10:36.706Z,81.3
2022-11-27T10:12:37.627Z,81.3
2022-11-27T10:13:21.462Z,81.6
2022-11-27T10:17:24.315Z,81.5
2022-11-27T10:19:25.365Z,81.6
2022-11-27T10:21:27.042Z,81.3
2022-11-27T10:23:28.030Z,81.5
2022-11-27T10:25:29.128Z,81.69
2022-11-27T10:27:30.094Z,81.5
2022-11-27T10:31:32.859Z,81.9
2022-11-27T10:33:34.539Z,81.4
2022-11-27T10:35:36.411Z,81.69
2022-11-27T10:37:37.819Z,81.69
2022-11-27T10:41:49.580Z,81.8
2022-11-27T10:43:43.339Z,81.5
2022-11-27T10:47:45.622Z,81.5
2022-11-27T10:49:47.473Z,81.8
2022-11-27T10:51:49.086Z,81.8
2022-11-27T10:53:50.709Z,81.69
2022-11-27T10:57:53.163Z,81.6
2022-11-27T10:59:54.072Z,81.69
2022-11-27T11:01:55.775Z,81.8
2022-11-27T11:03:57.623Z,81.69
2022-11-27T11:06:18.284Z,81.4
2022-11-27T11:08:00.768Z,81.9
2022-11-27T11:10:02.274Z,81.69
2022-11-27T11:14:04.713Z,81.8
2022-11-27T11:16:06.258Z,81.6
2022-11-27T11:18:07.199Z,20.5
2022-11-27T11:20:08.180Z,23.9
2022-11-27T11:26:12.306Z,36.5
2022-11-27T11:28:13.857Z,39.5
2022-11-27T11:30:15.460Z,46.5
2022-11-27T11:32:16.844Z,56.6
2022-11-27T11:34:17.855Z,51.4
2022-11-27T11:36:19.814Z,49.6
2022-11-27T11:40:24.007Z,81.5
2022-11-27T11:42:25.056Z,81.6
2022-11-27T11:44:26.716Z,81.9
2022-11-27T11:46:28.200Z,81.6
2022-11-27T11:48:29.359Z,81.8
2022-11-27T11:50:30.387Z,81.8
2022-11-27T11:52:31.880Z,81.9
2022-11-27T11:54:33.750Z,81.8
2022-11-27T11:56:34.807Z,81.9
2022-11-27T11:58:36.295Z,81.8
2022-11-27T12:00:53.025Z,81.8
2022-11-27T12:02:39.140Z,81.8
2022-11-27T12:04:40.346Z,81.5
2022-11-27T12:06:41.665Z,82.1
2022-11-27T12:08:43.517Z,82
2022-11-27T12:12:45.584Z,81.9
2022-11-27T12:14:47.037Z,81.8
2022-11-27T12:16:48.415Z,82.1
2022-11-27T12:18:49.464Z,81.69
2022-11-27T12:20:50.315Z,82
2022-11-27T12:22:51.907Z,81.9
2022-11-27T12:24:53.192Z,81.9
2022-11-27T12:26:54.107Z,81.6
2022-11-27T12:28:59.280Z,82.3
2022-11-27T12:30:57.278Z,81.9
2022-11-27T12:32:58.255Z,81.69
2022-11-27T12:35:00.410Z,81.69
2022-11-27T12:39:03.435Z,81.5
2022-11-27T12:41:04.687Z,81.69
2022-11-27T12:43:05.933Z,81.1
2022-11-27T12:45:07.038Z,80.1
2022-11-27T12:47:08.448Z,79.69
2022-11-27T12:49:09.468Z,79.19
2022-11-27T12:51:11.114Z,78.8
2022-11-27T12:53:12.343Z,78.4
2022-11-27T13:01:19.523Z,76.69
2022-11-27T13:03:18.623Z,76.19
2022-11-27T13:05:19.862Z,75.6
2022-11-27T13:15:28.454Z,73
2022-11-27T13:17:29.841Z,72.5
2022-11-27T13:19:31.365Z,71.4
2022-11-27T13:21:32.326Z,71.19
2022-11-27T13:23:33.977Z,70.69
2022-11-27T13:25:35.601Z,70
2022-11-27T13:27:36.696Z,69
2022-11-27T13:29:38.516Z,68.1
2022-11-27T13:33:41.311Z,66.3
2022-11-27T13:35:42.182Z,65.5
2022-11-27T13:37:43.765Z,64.3
2022-11-27T13:39:44.946Z,65.9
2022-11-27T13:41:46.847Z,17.6
2022-11-27T13:43:48.276Z,10.9
2022-11-27T13:45:49.599Z,3.8
2022-11-27T13:47:50.689Z,1.2
2022-11-27T13:49:52.629Z,-1.1
2022-11-27T13:55:56.625Z,25.8
2022-11-27T13:57:58.628Z,57.1
2022-11-27T14:00:01.021Z,55.6
2022-11-27T14:02:02.982Z,57.1
2022-11-27T14:04:04.349Z,16.1
2022-11-27T14:06:05.710Z,51.3
2022-11-27T14:08:07.459Z,3.7
2022-11-27T14:10:08.800Z,-2.8
2022-11-27T14:12:10.011Z,-5.9
2022-11-27T14:16:13.159Z,-0.7
2022-11-27T14:18:14.707Z,-4.69
2022-11-27T14:20:15.655Z,-12.1
2022-11-27T14:22:16.925Z,-17.1
2022-11-27T14:26:20.425Z,-23.7
2022-11-27T14:28:22.138Z,-27.1
2022-11-27T14:30:23.320Z,-28.4
2022-11-27T14:32:24.806Z,-28.6
2022-11-27T14:38:29.024Z,-28.4
2022-11-27T14:40:30.406Z,-28.3
2022-11-27T14:42:35.249Z,-28.5
2022-11-27T14:44:34.005Z,-28.4
2022-11-27T14:46:35.272Z,-28.5
2022-11-27T14:48:36.216Z,-28.4
2022-11-27T14:52:39.574Z,-28.2
2022-11-27T14:54:41.140Z,-28.6
2022-11-27T14:56:42.874Z,-28.2
2022-11-27T14:58:44.796Z,-28.3
2022-11-27T15:04:48.877Z,-28.4
2022-11-27T15:06:50.216Z,-28.2
2022-11-27T15:09:03.196Z,-28.3
2022-11-27T15:10:53.268Z,-28.6
2022-11-27T15:12:54.832Z,-28.5
2022-11-27T15:14:56.507Z,-28.3
2022-11-27T15:16:57.725Z,-28.4
2022-11-27T15:18:58.991Z,-28.4
2022-11-27T15:21:00.919Z,-28.3
2022-11-27T15:23:02.295Z,-28.3
2022-11-27T15:25:04.005Z,-28.4
2022-11-27T15:27:05.328Z,-28.5
2022-11-27T15:29:06.876Z,-28.4
2022-11-27T15:31:08.401Z,-28.4
2022-11-27T15:33:09.705Z,-28.6
2022-11-27T15:35:10.767Z,-28.4
2022-11-27T15:37:11.839Z,-28.4
2022-11-27T15:39:12.890Z,-28.4
2022-11-27T15:41:14.077Z,-28.6
2022-11-27T15:43:15.726Z,-28.4
2022-11-27T15:45:17.278Z,-28.4
2022-11-27T15:47:18.628Z,-28.1
2022-11-27T15:51:21.267Z,-28.4
2022-11-27T15:53:23.110Z,-28.4
2022-11-27T15:55:24.621Z,-28.5
2022-11-27T15:57:25.801Z,-28.5
2022-11-27T15:59:27.402Z,-28.5
2022-11-27T16:03:30.883Z,-28.4
2022-11-27T16:05:32.732Z,-28.3
2022-11-27T16:07:33.996Z,-28.3
2022-11-27T16:09:35.179Z,-28.3
2022-11-27T16:11:36.382Z,-28.4
2022-11-27T16:13:37.718Z,-28.3
2022-11-27T16:15:39.207Z,-28.2
2022-11-27T16:17:40.935Z,-28.3
2022-11-27T16:19:42.541Z,-28.5
2022-11-27T16:21:43.771Z,-28.4
2022-11-27T16:23:45.369Z,-28.4
2022-11-27T16:25:46.461Z,-28.5
2022-11-27T16:27:47.792Z,-28.4
2022-11-27T16:29:48.991Z,-28.2
2022-11-27T16:31:50.900Z,-28.5
2022-11-27T16:33:52.446Z,-28.3
2022-11-27T16:35:54.027Z,-28.6
2022-11-27T16:37:55.056Z,-28.6
2022-11-27T16:39:56.582Z,-28.6
2022-11-27T16:41:58.515Z,-28.5
2022-11-27T16:44:00.473Z,-28.3
2022-11-27T16:46:01.575Z,-28.4
2022-11-27T16:48:02.955Z,-28.5
2022-11-27T16:50:04.153Z,-28.5
2022-11-27T16:52:05.818Z,-28.4
2022-11-27T16:54:06.939Z,-28
2022-11-27T16:56:08.678Z,-28.4
2022-11-27T16:58:56.810Z,-28.5
2022-11-27T17:00:55.035Z,-28.6
2022-11-27T17:02:56.830Z,-28.3
2022-11-27T17:04:58.467Z,-28.5
2022-11-27T17:07:00.251Z,-28.3
2022-11-27T17:11:07.318Z,-28.5
2022-11-27T17:13:04.844Z,-28.5
2022-11-27T17:15:05.810Z,-28.5
2022-11-27T17:17:07.733Z,-28.4
2022-11-27T17:23:11.110Z,-28.6
2022-11-27T17:25:12.935Z,-28.2
2022-11-27T17:27:14.854Z,-28.4
2022-11-27T17:29:16.777Z,-28.4
2022-11-27T17:31:17.862Z,-28.3
2022-11-27T17:33:18.954Z,-28.2
2022-11-27T17:35:20.111Z,-28.5
2022-11-27T17:37:21.544Z,-28.3
2022-11-27T17:39:23.518Z,-28.5
2022-11-27T17:41:24.687Z,-28.5
2022-11-27T17:43:26.265Z,-28.4
2022-11-27T17:45:27.729Z,-28.5
2022-11-27T17:47:29.404Z,-28.2
2022-11-27T17:49:31.376Z,-28.3
2022-11-27T17:53:34.894Z,-28.5
2022-11-27T17:55:36.016Z,-28.4
2022-11-27T17:57:37.059Z,-28.4
2022-11-27T17:59:38.296Z,-28.5
2022-11-27T18:01:39.846Z,-28.4
2022-11-27T18:05:42.662Z,-28.5
2022-11-27T18:07:44.654Z,-28.4
2022-11-27T18:09:46.456Z,-28.4
2022-11-27T18:11:48.193Z,-28.7
2022-11-27T18:13:49.764Z,-28
2022-11-27T18:15:51.463Z,-28.3
2022-11-27T18:17:52.431Z,-28.4
2022-11-27T18:19:53.878Z,-28.3
2022-11-27T18:21:55.612Z,-28.3
2022-11-27T18:24:22.882Z,-28.4
2022-11-27T18:25:58.290Z,-28.4
2022-11-27T18:27:59.374Z,-28.4
2022-11-27T18:30:00.724Z,-28.4
2022-11-27T18:32:02.482Z,-28.5
2022-11-27T18:34:04.193Z,-28.4
2022-11-27T18:36:05.465Z,-28.3
2022-11-27T18:38:07.248Z,-28.5
2022-11-27T18:40:09.098Z,-28.4
2022-11-27T18:42:10.350Z,-28.5
2022-11-27T18:44:11.709Z,-28.6
2022-11-27T18:46:12.819Z,-28.5
2022-11-27T18:48:14.755Z,-28.4
2022-11-27T18:52:17.990Z,-28.4
2022-11-27T18:54:19.932Z,-28.4
2022-11-27T18:56:21.347Z,-28.5
2022-11-27T18:58:23.233Z,-28.4
2022-11-27T19:04:27.057Z,-28.2
2022-11-27T19:06:28.569Z,-28.6
2022-11-27T19:08:30.283Z,-28.4
2022-11-27T19:10:31.943Z,-28.5
2022-11-27T19:12:33.863Z,-28.5
2022-11-27T19:14:34.978Z,-28.5
2022-11-27T19:16:36.697Z,-28.6
2022-11-27T19:18:38.272Z,-28.6
2022-11-27T19:20:39.423Z,-28.2
2022-11-27T19:22:40.498Z,-28.2
2022-11-27T19:24:41.798Z,-28.3
2022-11-27T19:26:42.902Z,-28.4
2022-11-27T19:28:44.622Z,-28.3
2022-11-27T19:30:46.140Z,-28.4
2022-11-27T19:32:48.064Z,-28.3
2022-11-27T19:34:49.216Z,-28.3
2022-11-27T19:36:50.765Z,-28.5
2022-11-27T19:38:52.340Z,-28.3
2022-11-27T19:40:53.834Z,-28.5
2022-11-27T19:46:58.026Z,-28.1
2022-11-27T19:48:59.146Z,-28.5
2022-11-27T19:51:00.124Z,-28.4
2022-11-27T19:53:01.231Z,-28.3
2022-11-27T19:55:03.264Z,-28.4
2022-11-27T19:57:04.944Z,-28.2
2022-11-27T20:01:08.145Z,-28.6
2022-11-27T20:03:09.500Z,-28.3
2022-11-27T20:05:10.567Z,-28.4
2022-11-27T20:07:12.011Z,-28.5
2022-11-27T20:09:13.293Z,-28.6
2022-11-27T20:11:14.527Z,-28.4
2022-11-27T20:13:15.760Z,-28.4
2022-11-27T20:15:17.636Z,-28.3
2022-11-27T20:17:19.057Z,-28.4
2022-11-27T20:19:21.012Z,-28.6
2022-11-27T20:23:24.478Z,-28.4
2022-11-27T20:25:26.222Z,-28.3
2022-11-27T20:27:27.601Z,-28.5
2022-11-27T20:29:29.496Z,-28.3
2022-11-27T20:31:31.304Z,-28.5
2022-11-27T20:33:32.937Z,-28.5
2022-11-27T20:35:34.732Z,-28.5
2022-11-27T20:37:35.827Z,-28.4
2022-11-27T20:39:37.160Z,-28.5
2022-11-27T20:45:41.240Z,-28.2
2022-11-27T20:47:43.114Z,-28.5
2022-11-27T20:49:44.744Z,-28.6
2022-11-27T20:51:46.195Z,-28.4
2022-11-27T20:53:47.494Z,-28.3
2022-11-27T20:55:49.184Z,-28.5
2022-11-27T20:57:53.541Z,-28.5
2022-11-27T20:59:52.039Z,-28.3
2022-11-27T21:01:53.853Z,-28.6
2022-11-27T21:05:57.014Z,-28.5
2022-11-27T21:07:58.981Z,-28.5
2022-11-27T21:10:00.225Z,-28.2
2022-11-27T21:12:01.557Z,-28.4
2022-11-27T21:14:03.254Z,-28.4
2022-11-27T21:16:04.635Z,-28.5
2022-11-27T21:18:06.605Z,-28.4
2022-11-27T21:20:07.783Z,-28.4
2022-11-27T21:22:09.106Z,-28.3
2022-11-27T21:28:13.804Z,-28.5
2022-11-27T21:30:14.880Z,-28.3
2022-11-27T21:32:16.525Z,-28.2
2022-11-27T21:34:17.762Z,-28.7
2022-11-27T21:36:19.121Z,-28.5
2022-11-27T21:38:20.335Z,-28.5
2022-11-27T21:42:23.793Z,-28.2
2022-11-27T21:44:25.686Z,-28.5
2022-11-27T21:48:28.569Z,-28.2
2022-11-27T21:50:29.657Z,-28.5
2022-11-27T21:52:31.621Z,-28.4
2022-11-27T21:54:32.988Z,-28.5
2022-11-27T21:56:34.959Z,-28.6
2022-11-27T21:58:36.700Z,-28.2
2022-11-27T22:00:38.667Z,-28.5
2022-11-27T22:02:40.214Z,-28.3
2022-11-27T22:04:42.313Z,-28.2
2022-11-27T22:10:45.664Z,-28.5
2022-11-27T22:12:46.811Z,-28.3
2022-11-27T22:14:48.219Z,-28.5
2022-11-27T22:16:50.136Z,-28.5
2022-11-27T22:18:51.407Z,-28.6
2022-11-27T22:20:52.843Z,-28.5
2022-11-27T22:24:56.092Z,-28.2
2022-11-27T22:26:57.542Z,-28.5
2022-11-27T22:28:58.976Z,-28.5
2022-11-27T22:31:00.878Z,-28.4
2022-11-27T22:35:03.854Z,-28.5
2022-11-27T22:37:05.488Z,-28.5
2022-11-27T22:41:09.311Z,-28.5
2022-11-27T22:43:11.103Z,-28.5
2022-11-27T22:45:12.905Z,-28.4
2022-11-27T22:47:14.919Z,-28.4
2022-11-27T22:53:18.661Z,-28.4
2022-11-27T22:55:20.549Z,-28.3
2022-11-27T22:57:22.500Z,-28.4
2022-11-27T22:59:33.053Z,-28.3
2022-11-27T23:01:25.934Z,-28.3
2022-11-27T23:03:27.392Z,-28.3
2022-11-27T23:07:31.079Z,-28.6
2022-11-27T23:09:32.166Z,-28.2
2022-11-27T23:11:33.292Z,-28.5
2022-11-27T23:13:34.336Z,-28.4
2022-11-27T23:19:39.196Z,-28.3
2022-11-27T23:21:40.658Z,-28.5
2022-11-27T23:23:41.682Z,-28.6
2022-11-27T23:25:42.843Z,-28.3
2022-11-27T23:27:43.999Z,-28.4
2022-11-27T23:29:45.604Z,-28.4
2022-11-27T23:33:48.897Z,-28.3
2022-11-27T23:35:50.569Z,-28.3
2022-11-27T23:37:51.595Z,-28.2
2022-11-27T23:39:52.588Z,-28.5
2022-11-27T23:41:54.120Z,-28.4
2022-11-27T23:43:55.795Z,-28.5
2022-11-27T23:46:40.788Z,-28.6
2022-11-27T23:48:41.922Z,-28.1
2022-11-27T23:50:43.502Z,-28.4
2022-11-27T23:52:45.398Z,-28.3
2022-11-27T23:54:47.076Z,-28.5
2022-11-27T23:56:48.270Z,-28.4
